sensor_id;sensor_type;location;lat;lon;timestamp;temperature;humidity
19050;DHT22;9657;45.940;12.840;2023-04-10T00:00:10;16.20;59.10
19050;DHT22;9657;45.940;12.840;2023-04-10T00:02:37;16.20;59.10
19050;DHT22;9657;45.940;12.840;2023-04-10T00:05:06;16.20;59.10
19050;DHT22;9657;45.940;12.840;2023-04-10T00:07:33;16.20;59.10
19050;DHT22;9657;45.940;12.840;2023-04-10T00:10:02;16.20;59.10
19050;DHT22;9657;45.940;12.840;2023-04-10T00:12:29;16.20;59.10
19050;DHT22;9657;45.940;12.840;2023-04-10T00:14:56;16.20;59.10
19050;DHT22;9657;45.940;12.840;2023-04-10T00:17:23;16.20;59.10
19050;DHT22;9657;45.940;12.840;2023-04-10T00:19:50;16.20;59.10
19050;DHT22;9657;45.940;12.840;2023-04-10T00:22:17;16.20;59.10
19050;DHT22;9657;45.940;12.840;2023-04-10T00:24:44;16.20;59.00
19050;DHT22;9657;45.940;12.840;2023-04-10T00:27:13;16.20;59.00
19050;DHT22;9657;45.940;12.840;2023-04-10T00:29:40;16.10;58.90
19050;DHT22;9657;45.940;12.840;2023-04-10T00:32:07;16.10;58.90
19050;DHT22;9657;45.940;12.840;2023-04-10T00:34:34;16.10;58.90
19050;DHT22;9657;45.940;12.840;2023-04-10T00:37:01;16.20;59.00
19050;DHT22;9657;45.940;12.840;2023-04-10T00:39:28;16.10;58.90
19050;DHT22;9657;45.940;12.840;2023-04-10T00:41:55;16.10;58.80
19050;DHT22;9657;45.940;12.840;2023-04-10T00:44:24;16.10;58.80
19050;DHT22;9657;45.940;12.840;2023-04-10T00:46:51;16.10;58.80
19050;DHT22;9657;45.940;12.840;2023-04-10T00:49:18;16.10;58.80
19050;DHT22;9657;45.940;12.840;2023-04-10T00:51:46;16.10;58.80
19050;DHT22;9657;45.940;12.840;2023-04-10T00:54:13;16.10;58.80
19050;DHT22;9657;45.940;12.840;2023-04-10T00:56:40;16.10;58.80
19050;DHT22;9657;45.940;12.840;2023-04-10T00:59:08;16.10;58.80
19050;DHT22;9657;45.940;12.840;2023-04-10T01:04:13;16.10;58.80
19050;DHT22;9657;45.940;12.840;2023-04-10T01:06:51;16.10;58.80
19050;DHT22;9657;45.940;12.840;2023-04-10T01:09:28;16.10;58.80
19050;DHT22;9657;45.940;12.840;2023-04-10T01:12:07;16.10;58.70
19050;DHT22;9657;45.940;12.840;2023-04-10T01:14:41;16.10;58.80
19050;DHT22;9657;45.940;12.840;2023-04-10T01:17:17;16.10;58.80
19050;DHT22;9657;45.940;12.840;2023-04-10T01:20:11;16.10;58.80
19050;DHT22;9657;45.940;12.840;2023-04-10T01:22:48;16.10;58.80
19050;DHT22;9657;45.940;12.840;2023-04-10T01:25:34;16.10;58.70
19050;DHT22;9657;45.940;12.840;2023-04-10T01:28:20;16.10;58.70
19050;DHT22;9657;45.940;12.840;2023-04-10T01:30:55;16.10;58.70
19050;DHT22;9657;45.940;12.840;2023-04-10T01:33:28;16.10;58.70
19050;DHT22;9657;45.940;12.840;2023-04-10T01:36:02;16.10;58.70
19050;DHT22;9657;45.940;12.840;2023-04-10T01:38:32;16.10;58.70
19050;DHT22;9657;45.940;12.840;2023-04-10T01:41:00;16.10;58.70
19050;DHT22;9657;45.940;12.840;2023-04-10T01:43:28;16.10;58.70
19050;DHT22;9657;45.940;12.840;2023-04-10T01:45:58;16.10;58.70
19050;DHT22;9657;45.940;12.840;2023-04-10T01:48:27;16.10;58.70
19050;DHT22;9657;45.940;12.840;2023-04-10T01:50:55;16.10;58.60
19050;DHT22;9657;45.940;12.840;2023-04-10T01:53:23;16.10;58.60
19050;DHT22;9657;45.940;12.840;2023-04-10T01:55:51;16.10;58.60
19050;DHT22;9657;45.940;12.840;2023-04-10T01:58:19;16.10;58.60
19050;DHT22;9657;45.940;12.840;2023-04-10T02:00:46;16.10;58.60
19050;DHT22;9657;45.940;12.840;2023-04-10T02:03:14;16.10;58.60
19050;DHT22;9657;45.940;12.840;2023-04-10T02:05:51;16.10;58.50
19050;DHT22;9657;45.940;12.840;2023-04-10T02:08:25;16.10;58.60
19050;DHT22;9657;45.940;12.840;2023-04-10T02:11:00;16.10;58.50
19050;DHT22;9657;45.940;12.840;2023-04-10T02:13:28;16.00;58.50
19050;DHT22;9657;45.940;12.840;2023-04-10T02:15:59;16.00;58.50
19050;DHT22;9657;45.940;12.840;2023-04-10T02:18:30;16.10;58.50
19050;DHT22;9657;45.940;12.840;2023-04-10T02:20:59;16.00;58.50
19050;DHT22;9657;45.940;12.840;2023-04-10T02:23:27;16.00;58.40
19050;DHT22;9657;45.940;12.840;2023-04-10T02:25:54;16.00;58.40
19050;DHT22;9657;45.940;12.840;2023-04-10T02:28:23;16.00;58.40
19050;DHT22;9657;45.940;12.840;2023-04-10T02:30:50;16.00;58.40
19050;DHT22;9657;45.940;12.840;2023-04-10T02:33:17;16.00;58.50
19050;DHT22;9657;45.940;12.840;2023-04-10T02:35:46;16.00;58.40
19050;DHT22;9657;45.940;12.840;2023-04-10T02:38:13;16.00;58.40
19050;DHT22;9657;45.940;12.840;2023-04-10T02:40:40;16.00;58.40
19050;DHT22;9657;45.940;12.840;2023-04-10T02:43:07;16.00;58.40
19050;DHT22;9657;45.940;12.840;2023-04-10T02:45:34;16.00;58.40
19050;DHT22;9657;45.940;12.840;2023-04-10T02:48:01;16.00;58.40
19050;DHT22;9657;45.940;12.840;2023-04-10T02:50:28;16.00;58.30
19050;DHT22;9657;45.940;12.840;2023-04-10T02:52:58;16.00;58.40
19050;DHT22;9657;45.940;12.840;2023-04-10T02:55:25;16.00;58.40
19050;DHT22;9657;45.940;12.840;2023-04-10T02:57:52;16.00;58.30
19050;DHT22;9657;45.940;12.840;2023-04-10T03:00:20;16.00;58.40
19050;DHT22;9657;45.940;12.840;2023-04-10T03:02:48;16.00;58.40
19050;DHT22;9657;45.940;12.840;2023-04-10T03:05:15;16.00;58.40
19050;DHT22;9657;45.940;12.840;2023-04-10T03:07:42;16.00;58.40
19050;DHT22;9657;45.940;12.840;2023-04-10T03:10:11;16.00;58.40
19050;DHT22;9657;45.940;12.840;2023-04-10T03:12:38;16.00;58.40
19050;DHT22;9657;45.940;12.840;2023-04-10T03:15:06;16.00;58.40
19050;DHT22;9657;45.940;12.840;2023-04-10T03:17:33;16.00;58.40
19050;DHT22;9657;45.940;12.840;2023-04-10T03:20:00;16.00;58.30
19050;DHT22;9657;45.940;12.840;2023-04-10T03:22:27;16.00;58.30
19050;DHT22;9657;45.940;12.840;2023-04-10T03:24:56;16.00;58.30
19050;DHT22;9657;45.940;12.840;2023-04-10T03:27:25;16.00;58.30
19050;DHT22;9657;45.940;12.840;2023-04-10T03:29:52;16.00;58.30
19050;DHT22;9657;45.940;12.840;2023-04-10T03:32:19;15.90;58.20
19050;DHT22;9657;45.940;12.840;2023-04-10T03:34:46;16.00;58.30
19050;DHT22;9657;45.940;12.840;2023-04-10T03:37:13;16.00;58.20
19050;DHT22;9657;45.940;12.840;2023-04-10T03:39:40;16.00;58.30
19050;DHT22;9657;45.940;12.840;2023-04-10T03:42:07;15.90;58.20
19050;DHT22;9657;45.940;12.840;2023-04-10T03:44:35;15.90;58.20
19050;DHT22;9657;45.940;12.840;2023-04-10T03:47:02;15.90;58.20
19050;DHT22;9657;45.940;12.840;2023-04-10T03:49:29;15.90;58.20
19050;DHT22;9657;45.940;12.840;2023-04-10T03:51:56;15.90;58.20
19050;DHT22;9657;45.940;12.840;2023-04-10T03:54:23;15.90;58.20
19050;DHT22;9657;45.940;12.840;2023-04-10T03:56:50;15.90;58.20
19050;DHT22;9657;45.940;12.840;2023-04-10T03:59:17;15.90;58.20
19050;DHT22;9657;45.940;12.840;2023-04-10T04:01:46;15.90;58.10
19050;DHT22;9657;45.940;12.840;2023-04-10T04:04:13;15.90;58.10
19050;DHT22;9657;45.940;12.840;2023-04-10T04:06:40;15.90;58.10
19050;DHT22;9657;45.940;12.840;2023-04-10T04:09:07;15.90;58.10
19050;DHT22;9657;45.940;12.840;2023-04-10T04:11:34;15.90;58.20
19050;DHT22;9657;45.940;12.840;2023-04-10T04:14:03;15.90;58.10
19050;DHT22;9657;45.940;12.840;2023-04-10T04:16:30;15.90;58.10
19050;DHT22;9657;45.940;12.840;2023-04-10T04:18:59;15.90;58.10
19050;DHT22;9657;45.940;12.840;2023-04-10T04:21:26;15.90;58.10
19050;DHT22;9657;45.940;12.840;2023-04-10T04:23:53;15.90;58.10
19050;DHT22;9657;45.940;12.840;2023-04-10T04:26:21;15.90;58.10
19050;DHT22;9657;45.940;12.840;2023-04-10T04:28:49;15.90;58.10
19050;DHT22;9657;45.940;12.840;2023-04-10T04:31:16;15.90;58.10
19050;DHT22;9657;45.940;12.840;2023-04-10T04:33:43;15.90;58.00
19050;DHT22;9657;45.940;12.840;2023-04-10T04:36:11;15.90;58.00
19050;DHT22;9657;45.940;12.840;2023-04-10T04:38:38;15.90;58.00
19050;DHT22;9657;45.940;12.840;2023-04-10T04:41:06;15.90;58.00
19050;DHT22;9657;45.940;12.840;2023-04-10T04:43:33;15.90;58.10
19050;DHT22;9657;45.940;12.840;2023-04-10T04:46:00;15.90;58.00
19050;DHT22;9657;45.940;12.840;2023-04-10T04:48:27;15.90;58.00
19050;DHT22;9657;45.940;12.840;2023-04-10T04:50:54;15.80;58.00
19050;DHT22;9657;45.940;12.840;2023-04-10T04:53:23;15.80;58.00
19050;DHT22;9657;45.940;12.840;2023-04-10T04:55:50;15.90;58.00
19050;DHT22;9657;45.940;12.840;2023-04-10T04:58:17;15.80;58.00
19050;DHT22;9657;45.940;12.840;2023-04-10T05:00:45;15.80;58.00
19050;DHT22;9657;45.940;12.840;2023-04-10T05:03:12;15.80;58.00
19050;DHT22;9657;45.940;12.840;2023-04-10T05:05:39;15.80;58.10
19050;DHT22;9657;45.940;12.840;2023-04-10T05:08:06;15.80;58.10
19050;DHT22;9657;45.940;12.840;2023-04-10T05:10:34;15.80;58.10
19050;DHT22;9657;45.940;12.840;2023-04-10T05:13:01;15.80;58.20
19050;DHT22;9657;45.940;12.840;2023-04-10T05:15:28;15.80;58.20
19050;DHT22;9657;45.940;12.840;2023-04-10T05:17:55;15.80;58.20
19050;DHT22;9657;45.940;12.840;2023-04-10T05:20:22;15.80;58.20
19050;DHT22;9657;45.940;12.840;2023-04-10T05:22:50;15.80;58.30
19050;DHT22;9657;45.940;12.840;2023-04-10T05:25:18;15.80;58.30
19050;DHT22;9657;45.940;12.840;2023-04-10T05:27:47;15.80;58.30
19050;DHT22;9657;45.940;12.840;2023-04-10T05:30:14;15.80;58.30
19050;DHT22;9657;45.940;12.840;2023-04-10T05:32:41;15.80;59.10
19050;DHT22;9657;45.940;12.840;2023-04-10T05:35:08;15.80;58.50
19050;DHT22;9657;45.940;12.840;2023-04-10T05:37:35;15.80;58.60
19050;DHT22;9657;45.940;12.840;2023-04-10T05:40:03;15.80;58.70
19050;DHT22;9657;45.940;12.840;2023-04-10T05:42:30;15.80;58.80
19050;DHT22;9657;45.940;12.840;2023-04-10T05:44:58;15.80;58.90
19050;DHT22;9657;45.940;12.840;2023-04-10T05:47:25;15.80;59.70
19050;DHT22;9657;45.940;12.840;2023-04-10T05:49:52;15.80;59.10
19050;DHT22;9657;45.940;12.840;2023-04-10T05:52:19;15.80;59.20
19050;DHT22;9657;45.940;12.840;2023-04-10T05:54:46;15.80;59.20
19050;DHT22;9657;45.940;12.840;2023-04-10T05:57:15;15.80;59.30
19050;DHT22;9657;45.940;12.840;2023-04-10T05:59:42;15.80;59.30
19050;DHT22;9657;45.940;12.840;2023-04-10T06:02:10;15.80;59.30
19050;DHT22;9657;45.940;12.840;2023-04-10T06:04:37;15.80;59.40
19050;DHT22;9657;45.940;12.840;2023-04-10T06:07:05;15.80;59.40
19050;DHT22;9657;45.940;12.840;2023-04-10T06:09:32;15.80;59.40
19050;DHT22;9657;45.940;12.840;2023-04-10T06:11:59;15.80;59.40
19050;DHT22;9657;45.940;12.840;2023-04-10T06:14:26;15.80;59.40
19050;DHT22;9657;45.940;12.840;2023-04-10T06:16:53;15.80;59.40
19050;DHT22;9657;45.940;12.840;2023-04-10T06:19:21;15.80;59.40
19050;DHT22;9657;45.940;12.840;2023-04-10T06:21:48;15.80;59.40
19050;DHT22;9657;45.940;12.840;2023-04-10T06:24:15;15.80;59.40
19050;DHT22;9657;45.940;12.840;2023-04-10T06:26:42;15.80;59.40
19050;DHT22;9657;45.940;12.840;2023-04-10T06:29:09;15.80;59.40
19050;DHT22;9657;45.940;12.840;2023-04-10T06:31:37;15.80;59.40
19050;DHT22;9657;45.940;12.840;2023-04-10T06:34:04;15.80;59.60
19050;DHT22;9657;45.940;12.840;2023-04-10T06:36:32;15.80;59.40
19050;DHT22;9657;45.940;12.840;2023-04-10T06:38:59;15.80;59.40
19050;DHT22;9657;45.940;12.840;2023-04-10T06:41:27;15.80;59.50
19050;DHT22;9657;45.940;12.840;2023-04-10T06:43:54;15.80;59.50
19050;DHT22;9657;45.940;12.840;2023-04-10T06:46:21;15.80;59.50
19050;DHT22;9657;45.940;12.840;2023-04-10T06:48:48;15.80;59.50
19050;DHT22;9657;45.940;12.840;2023-04-10T06:51:15;15.80;59.50
19050;DHT22;9657;45.940;12.840;2023-04-10T06:53:44;15.80;59.50
19050;DHT22;9657;45.940;12.840;2023-04-10T06:56:11;15.80;59.50
19050;DHT22;9657;45.940;12.840;2023-04-10T06:58:38;15.80;59.50
19050;DHT22;9657;45.940;12.840;2023-04-10T07:01:06;15.80;59.60
19050;DHT22;9657;45.940;12.840;2023-04-10T07:03:33;15.80;59.60
19050;DHT22;9657;45.940;12.840;2023-04-10T07:06:00;15.80;59.60
19050;DHT22;9657;45.940;12.840;2023-04-10T07:08:27;15.80;59.60
19050;DHT22;9657;45.940;12.840;2023-04-10T07:10:56;15.80;59.60
19050;DHT22;9657;45.940;12.840;2023-04-10T07:13:23;15.80;59.60
19050;DHT22;9657;45.940;12.840;2023-04-10T07:15:50;15.80;59.60
19050;DHT22;9657;45.940;12.840;2023-04-10T07:18:17;15.90;59.60
19050;DHT22;9657;45.940;12.840;2023-04-10T07:20:44;15.80;59.60
19050;DHT22;9657;45.940;12.840;2023-04-10T07:23:11;15.80;59.60
19050;DHT22;9657;45.940;12.840;2023-04-10T07:25:41;15.80;59.60
19050;DHT22;9657;45.940;12.840;2023-04-10T07:28:09;15.80;59.60
19050;DHT22;9657;45.940;12.840;2023-04-10T07:30:36;15.80;59.60
19050;DHT22;9657;45.940;12.840;2023-04-10T07:33:03;15.90;59.70
19050;DHT22;9657;45.940;12.840;2023-04-10T07:35:30;15.90;59.70
19050;DHT22;9657;45.940;12.840;2023-04-10T07:37:57;15.80;59.70
19050;DHT22;9657;45.940;12.840;2023-04-10T07:40:24;15.80;59.70
19050;DHT22;9657;45.940;12.840;2023-04-10T07:42:51;15.90;59.80
19050;DHT22;9657;45.940;12.840;2023-04-10T07:45:20;15.80;59.70
19050;DHT22;9657;45.940;12.840;2023-04-10T07:47:47;15.80;59.70
19050;DHT22;9657;45.940;12.840;2023-04-10T07:50:14;15.90;59.70
19050;DHT22;9657;45.940;12.840;2023-04-10T07:52:41;15.90;59.70
19050;DHT22;9657;45.940;12.840;2023-04-10T07:55:08;15.90;59.70
19050;DHT22;9657;45.940;12.840;2023-04-10T07:57:35;15.90;59.60
19050;DHT22;9657;45.940;12.840;2023-04-10T08:00:03;15.90;59.60
19050;DHT22;9657;45.940;12.840;2023-04-10T08:02:31;15.90;59.60
19050;DHT22;9657;45.940;12.840;2023-04-10T08:04:58;15.90;59.60
19050;DHT22;9657;45.940;12.840;2023-04-10T08:07:25;15.90;59.60
19050;DHT22;9657;45.940;12.840;2023-04-10T08:09:52;15.90;59.60
19050;DHT22;9657;45.940;12.840;2023-04-10T08:12:19;15.90;59.60
19050;DHT22;9657;45.940;12.840;2023-04-10T08:14:47;15.90;59.60
19050;DHT22;9657;45.940;12.840;2023-04-10T08:17:16;15.90;59.60
19050;DHT22;9657;45.940;12.840;2023-04-10T08:19:44;15.90;59.60
19050;DHT22;9657;45.940;12.840;2023-04-10T08:22:11;15.90;59.50
19050;DHT22;9657;45.940;12.840;2023-04-10T08:24:38;15.90;59.50
19050;DHT22;9657;45.940;12.840;2023-04-10T08:27:05;15.90;59.50
19050;DHT22;9657;45.940;12.840;2023-04-10T08:29:32;15.90;59.50
19050;DHT22;9657;45.940;12.840;2023-04-10T08:31:59;15.90;59.50
19050;DHT22;9657;45.940;12.840;2023-04-10T08:34:26;15.90;59.50
19050;DHT22;9657;45.940;12.840;2023-04-10T08:36:56;15.90;59.50
19050;DHT22;9657;45.940;12.840;2023-04-10T08:39:23;15.90;60.10
19050;DHT22;9657;45.940;12.840;2023-04-10T08:41:50;15.90;59.50
19050;DHT22;9657;45.940;12.840;2023-04-10T08:44:17;15.90;59.40
19050;DHT22;9657;45.940;12.840;2023-04-10T08:46:45;15.90;59.40
19050;DHT22;9657;45.940;12.840;2023-04-10T08:49:16;15.90;59.40
19050;DHT22;9657;45.940;12.840;2023-04-10T08:51:52;16.00;59.50
19050;DHT22;9657;45.940;12.840;2023-04-10T08:54:27;16.00;59.40
19050;DHT22;9657;45.940;12.840;2023-04-10T08:56:55;16.00;59.40
19050;DHT22;9657;45.940;12.840;2023-04-10T08:59:23;16.00;59.40
19050;DHT22;9657;45.940;12.840;2023-04-10T09:01:50;16.00;59.40
19050;DHT22;9657;45.940;12.840;2023-04-10T09:04:18;16.00;59.40
19050;DHT22;9657;45.940;12.840;2023-04-10T09:06:45;16.00;59.40
19050;DHT22;9657;45.940;12.840;2023-04-10T09:09:12;16.00;59.40
19050;DHT22;9657;45.940;12.840;2023-04-10T09:12:00;16.00;59.40
19050;DHT22;9657;45.940;12.840;2023-04-10T09:14:30;16.00;59.40
19050;DHT22;9657;45.940;12.840;2023-04-10T09:17:14;16.00;59.30
19050;DHT22;9657;45.940;12.840;2023-04-10T09:19:43;16.00;59.30
19050;DHT22;9657;45.940;12.840;2023-04-10T09:22:10;16.00;59.30
19050;DHT22;9657;45.940;12.840;2023-04-10T09:24:39;16.00;59.20
19050;DHT22;9657;45.940;12.840;2023-04-10T09:27:08;16.10;59.20
19050;DHT22;9657;45.940;12.840;2023-04-10T09:29:41;16.10;59.20
19050;DHT22;9657;45.940;12.840;2023-04-10T09:32:08;16.10;59.10
19050;DHT22;9657;45.940;12.840;2023-04-10T09:34:51;16.10;59.10
19050;DHT22;9657;45.940;12.840;2023-04-10T09:37:19;16.10;59.00
19050;DHT22;9657;45.940;12.840;2023-04-10T09:39:47;16.20;58.90
19050;DHT22;9657;45.940;12.840;2023-04-10T09:42:29;16.20;58.80
19050;DHT22;9657;45.940;12.840;2023-04-10T09:44:57;16.20;58.70
19050;DHT22;9657;45.940;12.840;2023-04-10T09:47:24;16.30;58.70
19050;DHT22;9657;45.940;12.840;2023-04-10T09:49:53;16.30;58.60
19050;DHT22;9657;45.940;12.840;2023-04-10T09:52:22;16.30;58.50
19050;DHT22;9657;45.940;12.840;2023-04-10T09:54:50;16.40;58.50
19050;DHT22;9657;45.940;12.840;2023-04-10T09:57:20;16.40;58.40
19050;DHT22;9657;45.940;12.840;2023-04-10T09:59:48;16.40;58.30
19050;DHT22;9657;45.940;12.840;2023-04-10T10:02:16;16.50;58.30
19050;DHT22;9657;45.940;12.840;2023-04-10T10:04:45;16.50;58.20
19050;DHT22;9657;45.940;12.840;2023-04-10T10:07:14;16.50;58.00
19050;DHT22;9657;45.940;12.840;2023-04-10T10:09:42;16.60;58.00
19050;DHT22;9657;45.940;12.840;2023-04-10T10:12:10;16.60;58.00
19050;DHT22;9657;45.940;12.840;2023-04-10T10:14:46;16.60;58.00
19050;DHT22;9657;45.940;12.840;2023-04-10T10:17:17;16.60;58.00
19050;DHT22;9657;45.940;12.840;2023-04-10T10:19:52;16.70;57.90
19050;DHT22;9657;45.940;12.840;2023-04-10T10:22:21;16.70;57.90
19050;DHT22;9657;45.940;12.840;2023-04-10T10:24:52;16.70;57.80
19050;DHT22;9657;45.940;12.840;2023-04-10T10:27:22;16.80;57.80
19050;DHT22;9657;45.940;12.840;2023-04-10T10:29:52;16.90;57.70
19050;DHT22;9657;45.940;12.840;2023-04-10T10:32:20;16.80;57.60
19050;DHT22;9657;45.940;12.840;2023-04-10T10:34:50;16.80;57.50
19050;DHT22;9657;45.940;12.840;2023-04-10T10:37:18;16.90;57.50
19050;DHT22;9657;45.940;12.840;2023-04-10T10:39:52;16.90;57.50
19050;DHT22;9657;45.940;12.840;2023-04-10T10:42:29;16.90;57.40
19050;DHT22;9657;45.940;12.840;2023-04-10T10:45:05;16.90;57.40
19050;DHT22;9657;45.940;12.840;2023-04-10T10:47:39;16.90;57.40
19050;DHT22;9657;45.940;12.840;2023-04-10T10:50:07;17.00;57.30
19050;DHT22;9657;45.940;12.840;2023-04-10T10:52:44;17.00;57.40
19050;DHT22;9657;45.940;12.840;2023-04-10T10:55:30;16.90;57.30
19050;DHT22;9657;45.940;12.840;2023-04-10T10:58:00;16.90;57.50
19050;DHT22;9657;45.940;12.840;2023-04-10T11:03:29;16.90;57.70
19050;DHT22;9657;45.940;12.840;2023-04-10T11:05:58;16.90;57.70
19050;DHT22;9657;45.940;12.840;2023-04-10T11:08:36;16.90;57.70
19050;DHT22;9657;45.940;12.840;2023-04-10T11:11:06;16.90;57.80
19050;DHT22;9657;45.940;12.840;2023-04-10T11:13:35;16.90;58.50
19050;DHT22;9657;45.940;12.840;2023-04-10T11:16:04;16.90;57.90
19050;DHT22;9657;45.940;12.840;2023-04-10T11:19:04;16.90;57.90
19050;DHT22;9657;45.940;12.840;2023-04-10T11:21:32;16.90;57.90
19050;DHT22;9657;45.940;12.840;2023-04-10T11:24:04;16.90;58.00
19050;DHT22;9657;45.940;12.840;2023-04-10T11:26:40;16.90;58.10
19050;DHT22;9657;45.940;12.840;2023-04-10T11:29:33;16.90;58.10
19050;DHT22;9657;45.940;12.840;2023-04-10T11:32:02;16.90;58.10
19050;DHT22;9657;45.940;12.840;2023-04-10T11:34:31;16.90;58.10
19050;DHT22;9657;45.940;12.840;2023-04-10T11:36:59;16.80;58.10
19050;DHT22;9657;45.940;12.840;2023-04-10T11:39:29;16.80;58.10
19050;DHT22;9657;45.940;12.840;2023-04-10T11:41:57;16.90;58.20
19050;DHT22;9657;45.940;12.840;2023-04-10T11:44:28;16.80;58.20
19050;DHT22;9657;45.940;12.840;2023-04-10T11:46:56;16.80;58.20
19050;DHT22;9657;45.940;12.840;2023-04-10T11:49:24;16.90;58.20
19050;DHT22;9657;45.940;12.840;2023-04-10T11:51:54;16.90;58.20
19050;DHT22;9657;45.940;12.840;2023-04-10T11:54:22;16.80;58.20
19050;DHT22;9657;45.940;12.840;2023-04-10T11:56:57;16.80;58.20
19050;DHT22;9657;45.940;12.840;2023-04-10T11:59:26;16.80;58.20
19050;DHT22;9657;45.940;12.840;2023-04-10T12:02:02;16.90;58.20
19050;DHT22;9657;45.940;12.840;2023-04-10T12:04:29;16.80;58.20
19050;DHT22;9657;45.940;12.840;2023-04-10T12:06:58;16.80;58.20
19050;DHT22;9657;45.940;12.840;2023-04-10T12:09:25;16.80;58.20
19050;DHT22;9657;45.940;12.840;2023-04-10T12:11:54;16.80;58.20
19050;DHT22;9657;45.940;12.840;2023-04-10T12:14:22;16.80;58.20
19050;DHT22;9657;45.940;12.840;2023-04-10T12:16:50;16.90;58.20
19050;DHT22;9657;45.940;12.840;2023-04-10T12:19:18;16.90;58.20
19050;DHT22;9657;45.940;12.840;2023-04-10T12:21:46;16.80;58.20
19050;DHT22;9657;45.940;12.840;2023-04-10T12:24:40;16.80;58.10
19050;DHT22;9657;45.940;12.840;2023-04-10T12:27:08;16.80;58.10
19050;DHT22;9657;45.940;12.840;2023-04-10T12:29:41;16.80;58.20
19050;DHT22;9657;45.940;12.840;2023-04-10T12:32:08;16.90;58.20
19050;DHT22;9657;45.940;12.840;2023-04-10T12:34:35;16.80;58.20
19050;DHT22;9657;45.940;12.840;2023-04-10T12:37:02;16.90;58.20
19050;DHT22;9657;45.940;12.840;2023-04-10T12:39:32;16.80;58.20
19050;DHT22;9657;45.940;12.840;2023-04-10T12:42:12;16.90;58.20
19050;DHT22;9657;45.940;12.840;2023-04-10T12:44:52;16.80;58.20
19050;DHT22;9657;45.940;12.840;2023-04-10T12:47:20;16.80;58.20
19050;DHT22;9657;45.940;12.840;2023-04-10T12:50:04;16.80;58.20
19050;DHT22;9657;45.940;12.840;2023-04-10T12:52:31;16.90;58.20
19050;DHT22;9657;45.940;12.840;2023-04-10T12:55:09;16.80;58.20
19050;DHT22;9657;45.940;12.840;2023-04-10T12:57:37;16.80;58.20
19050;DHT22;9657;45.940;12.840;2023-04-10T13:00:05;16.80;58.20
19050;DHT22;9657;45.940;12.840;2023-04-10T13:02:34;16.90;58.30
19050;DHT22;9657;45.940;12.840;2023-04-10T13:05:01;16.80;58.30
19050;DHT22;9657;45.940;12.840;2023-04-10T13:07:28;16.80;58.30
19050;DHT22;9657;45.940;12.840;2023-04-10T13:09:55;16.80;58.40
19050;DHT22;9657;45.940;12.840;2023-04-10T13:12:24;16.90;58.40
19050;DHT22;9657;45.940;12.840;2023-04-10T13:14:52;16.90;58.40
19050;DHT22;9657;45.940;12.840;2023-04-10T13:17:19;16.90;58.40
19050;DHT22;9657;45.940;12.840;2023-04-10T13:19:46;16.90;58.50
19050;DHT22;9657;45.940;12.840;2023-04-10T13:22:13;16.90;58.40
19050;DHT22;9657;45.940;12.840;2023-04-10T13:24:41;16.90;58.50
19050;DHT22;9657;45.940;12.840;2023-04-10T13:27:09;16.90;58.50
19050;DHT22;9657;45.940;12.840;2023-04-10T13:29:39;16.90;58.50
19050;DHT22;9657;45.940;12.840;2023-04-10T13:32:06;16.90;58.50
19050;DHT22;9657;45.940;12.840;2023-04-10T13:34:33;16.90;58.50
19050;DHT22;9657;45.940;12.840;2023-04-10T13:37:01;16.90;58.60
19050;DHT22;9657;45.940;12.840;2023-04-10T13:39:29;16.90;58.60
19050;DHT22;9657;45.940;12.840;2023-04-10T13:41:56;16.90;58.50
19050;DHT22;9657;45.940;12.840;2023-04-10T13:44:23;16.90;58.50
19050;DHT22;9657;45.940;12.840;2023-04-10T13:46:52;16.90;58.40
19050;DHT22;9657;45.940;12.840;2023-04-10T13:49:19;16.90;58.50
19050;DHT22;9657;45.940;12.840;2023-04-10T13:51:47;16.90;58.50
19050;DHT22;9657;45.940;12.840;2023-04-10T13:54:14;16.90;58.50
19050;DHT22;9657;45.940;12.840;2023-04-10T13:56:42;16.90;58.50
19050;DHT22;9657;45.940;12.840;2023-04-10T13:59:09;17.00;58.50
19050;DHT22;9657;45.940;12.840;2023-04-10T14:01:36;17.00;58.60
19050;DHT22;9657;45.940;12.840;2023-04-10T14:04:06;16.90;58.50
19050;DHT22;9657;45.940;12.840;2023-04-10T14:06:33;16.90;58.50
19050;DHT22;9657;45.940;12.840;2023-04-10T14:09:00;17.00;58.50
19050;DHT22;9657;45.940;12.840;2023-04-10T14:11:27;17.00;58.60
19050;DHT22;9657;45.940;12.840;2023-04-10T14:13:54;17.00;58.50
19050;DHT22;9657;45.940;12.840;2023-04-10T14:16:21;17.00;58.50
19050;DHT22;9657;45.940;12.840;2023-04-10T14:18:48;17.00;58.50
19050;DHT22;9657;45.940;12.840;2023-04-10T14:21:16;17.00;58.50
19050;DHT22;9657;45.940;12.840;2023-04-10T14:23:43;17.00;59.20
19050;DHT22;9657;45.940;12.840;2023-04-10T14:26:10;17.00;58.50
19050;DHT22;9657;45.940;12.840;2023-04-10T14:28:37;17.00;58.50
19050;DHT22;9657;45.940;12.840;2023-04-10T14:31:05;17.00;58.50
19050;DHT22;9657;45.940;12.840;2023-04-10T14:33:32;17.00;58.50
19050;DHT22;9657;45.940;12.840;2023-04-10T14:35:59;17.00;58.50
19050;DHT22;9657;45.940;12.840;2023-04-10T14:38:28;17.00;58.50
19050;DHT22;9657;45.940;12.840;2023-04-10T14:40:55;17.00;58.50
19050;DHT22;9657;45.940;12.840;2023-04-10T14:43:22;17.00;58.50
19050;DHT22;9657;45.940;12.840;2023-04-10T14:45:49;17.00;58.50
19050;DHT22;9657;45.940;12.840;2023-04-10T14:48:16;17.00;58.50
19050;DHT22;9657;45.940;12.840;2023-04-10T14:50:44;17.00;58.50
19050;DHT22;9657;45.940;12.840;2023-04-10T14:53:11;17.10;58.50
19050;DHT22;9657;45.940;12.840;2023-04-10T14:55:39;17.00;58.40
19050;DHT22;9657;45.940;12.840;2023-04-10T14:58:06;17.00;58.30
19050;DHT22;9657;45.940;12.840;2023-04-10T15:00:35;17.00;58.30
19050;DHT22;9657;45.940;12.840;2023-04-10T15:03:02;17.00;58.30
19050;DHT22;9657;45.940;12.840;2023-04-10T15:05:31;17.00;58.20
19050;DHT22;9657;45.940;12.840;2023-04-10T15:07:58;17.10;58.20
19050;DHT22;9657;45.940;12.840;2023-04-10T15:10:27;17.10;58.20
19050;DHT22;9657;45.940;12.840;2023-04-10T15:12:55;17.10;58.00
19050;DHT22;9657;45.940;12.840;2023-04-10T15:15:22;17.10;58.00
19050;DHT22;9657;45.940;12.840;2023-04-10T15:17:49;17.10;57.90
19050;DHT22;9657;45.940;12.840;2023-04-10T15:20:16;17.10;57.80
19050;DHT22;9657;45.940;12.840;2023-04-10T15:22:43;17.10;57.70
19050;DHT22;9657;45.940;12.840;2023-04-10T15:25:12;17.10;57.70
19050;DHT22;9657;45.940;12.840;2023-04-10T15:27:39;17.10;57.60
19050;DHT22;9657;45.940;12.840;2023-04-10T15:30:08;17.10;57.50
19050;DHT22;9657;45.940;12.840;2023-04-10T15:32:36;17.10;57.40
19050;DHT22;9657;45.940;12.840;2023-04-10T15:35:04;17.10;57.20
19050;DHT22;9657;45.940;12.840;2023-04-10T15:37:33;17.10;57.30
19050;DHT22;9657;45.940;12.840;2023-04-10T15:40:01;17.10;57.30
19050;DHT22;9657;45.940;12.840;2023-04-10T15:42:30;17.10;57.30
19050;DHT22;9657;45.940;12.840;2023-04-10T15:44:57;17.10;57.20